createdAt,value
2023-01-29T00:00:22.423Z,16.50
2023-01-29T00:02:50.951Z,15.30
2023-01-29T00:05:28.021Z,12.80
2023-01-29T00:07:57.399Z,16.20
2023-01-29T00:10:26.486Z,12.30
2023-01-29T00:12:57.542Z,14.10
2023-01-29T00:15:25.935Z,12.10
2023-01-29T00:17:54.636Z,12.20
2023-01-29T00:20:23.072Z,14.10
2023-01-29T00:22:51.875Z,18.70
2023-01-29T00:25:20.275Z,14.90
2023-01-29T00:27:49.166Z,15.80
2023-01-29T00:30:20.219Z,14.90
2023-01-29T00:32:49.066Z,15.80
2023-01-29T00:35:17.800Z,21.20
2023-01-29T00:37:46.746Z,15.60
2023-01-29T00:40:18.339Z,18.40
2023-01-29T00:43:06.822Z,22.60
2023-01-29T00:45:37.124Z,21.80
2023-01-29T00:48:07.444Z,25.00
2023-01-29T00:50:39.254Z,29.50
2023-01-29T00:53:08.118Z,36.50
2023-01-29T00:55:37.021Z,31.40
2023-01-29T00:58:06.133Z,47.50
2023-01-29T01:00:34.721Z,57.70
2023-01-29T01:03:05.835Z,35.90
2023-01-29T01:05:35.600Z,38.50
2023-01-29T01:08:25.362Z,46.70
2023-01-29T01:11:05.804Z,35.40
2023-01-29T01:13:34.462Z,44.60
2023-01-29T01:16:08.881Z,26.80
2023-01-29T01:18:38.338Z,31.50
2023-01-29T01:21:07.089Z,25.00
2023-01-29T01:23:35.839Z,21.10
2023-01-29T01:26:09.444Z,16.00
2023-01-29T01:28:39.861Z,17.10
2023-01-29T01:31:10.567Z,17.20
2023-01-29T01:33:39.237Z,19.00
2023-01-29T01:36:10.064Z,20.40
2023-01-29T01:38:44.852Z,16.40
2023-01-29T01:41:18.639Z,20.30
2023-01-29T01:43:51.313Z,22.60
2023-01-29T01:46:20.530Z,23.10
2023-01-29T01:48:53.574Z,22.70
2023-01-29T01:51:22.639Z,22.50
2023-01-29T01:53:58.455Z,32.90
2023-01-29T01:56:29.628Z,27.20
2023-01-29T01:58:58.389Z,54.60
2023-01-29T02:01:28.260Z,59.20
2023-01-29T02:04:20.886Z,67.00
2023-01-29T02:07:08.371Z,69.70
2023-01-29T02:10:11.764Z,69.50
2023-01-29T02:12:40.841Z,53.00
2023-01-29T02:15:10.031Z,55.70
2023-01-29T02:17:39.042Z,60.70
2023-01-29T02:20:25.018Z,58.30
2023-01-29T02:23:23.572Z,64.00
2023-01-29T02:26:31.158Z,57.70
2023-01-29T02:29:27.550Z,58.20
2023-01-29T02:31:59.052Z,60.80
2023-01-29T02:35:19.025Z,44.90
2023-01-29T02:37:54.934Z,41.10
2023-01-29T02:41:05.635Z,28.50
2023-01-29T02:43:56.144Z,27.80
2023-01-29T02:46:47.554Z,24.50
2023-01-29T02:49:25.506Z,18.80
2023-01-29T02:51:56.712Z,21.20
2023-01-29T02:57:29.812Z,16.60
2023-01-29T03:00:19.148Z,17.00
2023-01-29T03:03:00.483Z,16.70
2023-01-29T03:05:32.914Z,17.40
2023-01-29T03:08:06.825Z,20.30
2023-01-29T03:10:40.568Z,15.60
2023-01-29T03:13:17.690Z,16.60
2023-01-29T03:15:48.674Z,14.80
2023-01-29T03:18:46.150Z,14.50
2023-01-29T03:21:43.879Z,17.20
2023-01-29T03:25:08.351Z,17.10
2023-01-29T03:28:14.489Z,20.80
2023-01-29T03:31:11.023Z,19.00
2023-01-29T03:34:18.498Z,19.80
2023-01-29T03:36:56.302Z,19.10
2023-01-29T03:39:28.668Z,19.90
2023-01-29T03:42:20.854Z,23.10
2023-01-29T03:44:55.225Z,20.10
2023-01-29T03:47:42.456Z,20.50
2023-01-29T03:50:17.874Z,16.40
2023-01-29T03:53:02.884Z,17.90
2023-01-29T03:55:43.294Z,16.10
2023-01-29T03:58:25.885Z,18.40
2023-01-29T04:00:57.009Z,13.90
2023-01-29T04:03:34.717Z,17.90
2023-01-29T04:06:43.450Z,19.30
2023-01-29T04:09:16.640Z,16.90
2023-01-29T04:11:48.758Z,17.40
2023-01-29T04:14:17.288Z,19.60
2023-01-29T04:16:50.315Z,15.40
2023-01-29T04:19:40.693Z,17.40
2023-01-29T04:22:39.665Z,16.70
2023-01-29T04:25:16.194Z,15.10
2023-01-29T04:28:12.178Z,19.40
2023-01-29T04:30:44.335Z,17.80
2023-01-29T04:33:31.599Z,14.90
2023-01-29T04:36:11.134Z,21.00
2023-01-29T04:39:17.587Z,18.80
2023-01-29T04:42:07.551Z,25.70
2023-01-29T04:44:45.450Z,15.90
2023-01-29T04:47:41.473Z,18.60
2023-01-29T04:50:35.933Z,18.70
2023-01-29T04:53:04.312Z,19.70
2023-01-29T04:55:36.971Z,18.10
2023-01-29T04:58:16.736Z,18.40
2023-01-29T05:00:45.855Z,18.60
2023-01-29T05:03:15.229Z,18.80
2023-01-29T05:05:45.961Z,14.90
2023-01-29T05:08:16.411Z,14.60
2023-01-29T05:10:45.972Z,16.70
2023-01-29T05:13:14.877Z,15.90
2023-01-29T05:15:53.175Z,15.10
2023-01-29T05:18:22.128Z,14.10
2023-01-29T05:20:51.318Z,13.80
2023-01-29T05:23:21.640Z,14.60
2023-01-29T05:25:50.988Z,15.30
2023-01-29T05:28:19.979Z,15.20
2023-01-29T05:30:50.424Z,15.50
2023-01-29T05:33:23.423Z,14.60
2023-01-29T05:35:51.903Z,18.00
2023-01-29T05:38:20.952Z,15.30
2023-01-29T05:40:49.415Z,15.40
2023-01-29T05:43:19.347Z,16.70
2023-01-29T05:45:57.601Z,16.30
2023-01-29T05:48:29.755Z,17.40
2023-01-29T05:51:04.687Z,21.40
2023-01-29T05:53:33.755Z,18.90
2023-01-29T05:56:03.294Z,16.00
2023-01-29T05:58:35.569Z,19.40
2023-01-29T06:01:15.371Z,18.70
2023-01-29T06:03:45.388Z,17.20
2023-01-29T06:06:17.602Z,15.30
2023-01-29T06:08:47.487Z,20.90
2023-01-29T06:11:18.464Z,18.30
2023-01-29T06:13:48.130Z,13.10
2023-01-29T06:16:16.690Z,13.60
2023-01-29T06:18:45.316Z,18.50
2023-01-29T06:21:14.080Z,23.90
2023-01-29T06:23:42.774Z,26.50
2023-01-29T06:26:12.935Z,20.20
2023-01-29T06:28:42.485Z,23.10
2023-01-29T06:31:31.395Z,21.50
2023-01-29T06:33:59.434Z,15.60
2023-01-29T06:36:27.906Z,18.20
2023-01-29T06:38:59.327Z,19.50
2023-01-29T06:41:28.836Z,21.60
2023-01-29T06:43:57.603Z,18.30
2023-01-29T06:46:26.099Z,20.00
2023-01-29T06:48:54.517Z,19.10
2023-01-29T06:51:25.259Z,17.60
2023-01-29T06:53:56.263Z,19.30
2023-01-29T06:56:24.733Z,18.80
2023-01-29T06:58:53.784Z,19.90
2023-01-29T07:01:35.060Z,17.40
2023-01-29T07:04:05.572Z,23.10
2023-01-29T07:06:34.089Z,21.60
2023-01-29T07:09:03.953Z,20.40
2023-01-29T07:11:38.201Z,19.40
2023-01-29T07:14:07.554Z,18.80
2023-01-29T07:16:36.233Z,15.60
2023-01-29T07:19:05.051Z,20.90
2023-01-29T07:21:34.713Z,21.10
2023-01-29T07:24:03.683Z,18.60
2023-01-29T07:26:32.169Z,15.20
2023-01-29T07:29:00.608Z,18.80
2023-01-29T07:31:29.465Z,16.10
2023-01-29T07:33:58.424Z,19.40
2023-01-29T07:36:28.647Z,16.90
2023-01-29T07:38:57.111Z,15.80
2023-01-29T07:41:26.978Z,15.00
2023-01-29T07:43:56.555Z,19.00
2023-01-29T07:46:24.963Z,16.30
2023-01-29T07:48:54.182Z,18.00
2023-01-29T07:51:22.915Z,19.60
2023-01-29T07:53:51.767Z,17.50
2023-01-29T07:56:23.419Z,17.30
2023-01-29T07:58:52.964Z,17.80
2023-01-29T08:01:21.416Z,22.10
2023-01-29T08:03:51.247Z,18.90
2023-01-29T08:06:20.152Z,21.20
2023-01-29T08:08:49.079Z,25.50
2023-01-29T08:11:18.454Z,21.80
2023-01-29T08:13:47.032Z,21.20
2023-01-29T08:16:15.604Z,21.10
2023-01-29T08:18:48.059Z,24.20
2023-01-29T08:21:17.159Z,20.80
2023-01-29T08:23:45.872Z,15.00
2023-01-29T08:26:14.219Z,18.20
2023-01-29T08:28:42.627Z,18.10
2023-01-29T08:31:16.183Z,18.70
2023-01-29T08:33:45.190Z,15.80
2023-01-29T08:36:13.945Z,16.20
2023-01-29T08:38:42.731Z,15.30
2023-01-29T08:41:12.475Z,18.80
2023-01-29T08:43:41.523Z,19.70
2023-01-29T08:46:10.028Z,16.40
2023-01-29T08:48:38.910Z,19.30
2023-01-29T08:51:07.599Z,19.90
2023-01-29T08:53:39.101Z,20.20
2023-01-29T08:56:07.771Z,17.70
2023-01-29T08:58:37.248Z,17.40
2023-01-29T09:01:07.828Z,19.10
2023-01-29T09:03:36.470Z,23.80
2023-01-29T09:06:05.076Z,19.30
2023-01-29T09:08:38.283Z,21.10
2023-01-29T09:11:08.232Z,23.60
2023-01-29T09:13:36.679Z,17.60
2023-01-29T09:16:05.468Z,19.50
2023-01-29T09:18:33.807Z,19.00
2023-01-29T09:21:03.024Z,20.90
2023-01-29T09:23:31.627Z,18.80
2023-01-29T09:26:00.169Z,21.70
2023-01-29T09:28:29.253Z,20.50
2023-01-29T09:31:01.827Z,20.80
2023-01-29T09:33:31.297Z,19.00
2023-01-29T09:35:59.822Z,17.90
2023-01-29T09:38:28.613Z,20.00
2023-01-29T09:41:07.848Z,19.80
2023-01-29T09:43:48.470Z,21.60
2023-01-29T09:46:33.741Z,19.30
2023-01-29T09:49:06.541Z,17.40
2023-01-29T09:51:39.471Z,17.30
2023-01-29T09:54:26.395Z,18.50
2023-01-29T09:56:56.631Z,19.50
2023-01-29T09:59:27.340Z,22.30
2023-01-29T10:02:19.428Z,24.00
2023-01-29T10:05:06.566Z,30.40
2023-01-29T10:08:00.558Z,27.40
2023-01-29T10:13:45.787Z,22.00
2023-01-29T10:16:32.732Z,19.10
2023-01-29T10:19:05.381Z,25.30
2023-01-29T10:21:49.256Z,20.80
2023-01-29T10:24:42.134Z,23.50
2023-01-29T10:27:15.764Z,23.80
2023-01-29T10:29:45.196Z,26.00
2023-01-29T10:32:19.200Z,26.70
2023-01-29T10:34:50.536Z,24.30
2023-01-29T10:37:28.128Z,30.80
2023-01-29T10:39:56.768Z,25.90
2023-01-29T10:42:39.813Z,28.40
2023-01-29T10:45:50.834Z,31.40
2023-01-29T10:48:35.589Z,28.20
2023-01-29T10:51:22.264Z,30.70
2023-01-29T10:54:15.183Z,25.20
2023-01-29T10:57:05.886Z,31.00
2023-01-29T10:59:40.384Z,27.80
2023-01-29T11:02:18.534Z,29.10
2023-01-29T11:04:47.565Z,27.00
2023-01-29T11:07:18.268Z,36.80
2023-01-29T11:10:08.593Z,31.90
2023-01-29T11:12:39.073Z,22.60
2023-01-29T11:15:13.322Z,28.30
2023-01-29T11:18:21.167Z,36.70
2023-01-29T11:21:00.754Z,30.50
2023-01-29T11:23:32.151Z,26.80
2023-01-29T11:26:00.841Z,31.30
2023-01-29T11:28:37.121Z,28.00
2023-01-29T11:31:22.108Z,31.50
2023-01-29T11:33:52.749Z,28.90
2023-01-29T11:36:35.512Z,31.80
2023-01-29T11:39:18.066Z,28.80
2023-01-29T11:41:51.195Z,29.60
2023-01-29T11:46:49.853Z,30.00
2023-01-29T11:49:32.912Z,27.50
2023-01-29T11:52:03.385Z,35.20
2023-01-29T11:54:37.084Z,31.00
2023-01-29T11:57:20.927Z,32.80
2023-01-29T11:59:51.065Z,29.80
2023-01-29T12:02:19.969Z,35.70
2023-01-29T12:04:48.689Z,37.40
2023-01-29T12:07:18.412Z,33.60
2023-01-29T12:09:52.406Z,37.50
2023-01-29T12:12:32.359Z,33.70
2023-01-29T12:15:21.784Z,32.70
2023-01-29T12:18:33.921Z,32.20
2023-01-29T12:21:04.050Z,28.50
2023-01-29T12:23:50.362Z,33.40
2023-01-29T12:26:38.952Z,32.30
2023-01-29T12:29:16.558Z,28.90
2023-01-29T12:32:03.721Z,31.00
2023-01-29T12:35:06.943Z,25.00
2023-01-29T12:37:53.530Z,32.20
2023-01-29T12:40:40.857Z,29.80
2023-01-29T12:43:17.556Z,27.20
2023-01-29T12:45:49.531Z,25.70
2023-01-29T12:48:24.827Z,25.70
2023-01-29T12:50:54.417Z,26.60
2023-01-29T12:53:27.126Z,26.80
2023-01-29T12:56:02.374Z,25.10
2023-01-29T12:58:36.744Z,28.50
2023-01-29T13:01:18.232Z,32.40
2023-01-29T13:03:49.673Z,27.00
2023-01-29T13:06:21.721Z,27.00
2023-01-29T13:08:53.974Z,24.90
2023-01-29T13:11:29.659Z,23.70
2023-01-29T13:14:12.953Z,20.80
2023-01-29T13:16:43.563Z,25.40
2023-01-29T13:19:41.296Z,28.80
2023-01-29T13:22:20.400Z,24.10
2023-01-29T13:24:58.725Z,26.20
2023-01-29T13:27:34.357Z,22.10
2023-01-29T13:30:03.499Z,26.10
2023-01-29T13:32:33.151Z,29.40
2023-01-29T13:35:03.986Z,28.10
2023-01-29T13:37:40.150Z,28.20
2023-01-29T13:40:18.376Z,22.10
2023-01-29T13:42:47.773Z,23.40
2023-01-29T13:45:29.051Z,23.00
2023-01-29T13:48:09.957Z,23.70
2023-01-29T13:50:40.612Z,20.90
2023-01-29T13:53:17.766Z,25.60
2023-01-29T13:55:46.162Z,24.90
2023-01-29T13:58:16.885Z,25.90
2023-01-29T14:00:49.463Z,25.90
2023-01-29T14:03:17.933Z,26.20
2023-01-29T14:06:02.408Z,24.50
2023-01-29T14:08:39.021Z,23.40
2023-01-29T14:11:15.691Z,25.50
2023-01-29T14:13:47.674Z,27.30
2023-01-29T14:16:17.785Z,27.00
2023-01-29T14:19:02.624Z,25.60
2023-01-29T14:21:35.286Z,31.00
2023-01-29T14:24:10.283Z,26.70
2023-01-29T14:26:39.136Z,24.50
2023-01-29T14:29:21.302Z,24.50
2023-01-29T14:32:20.674Z,23.40
2023-01-29T14:34:51.071Z,27.50
2023-01-29T14:37:45.500Z,25.40
2023-01-29T14:40:23.031Z,25.60
2023-01-29T14:43:07.844Z,26.80
2023-01-29T14:45:37.970Z,25.80
2023-01-29T14:48:12.495Z,28.20
2023-01-29T14:50:42.154Z,25.70
2023-01-29T14:53:26.284Z,27.20
2023-01-29T14:55:54.817Z,30.80
2023-01-29T14:58:44.700Z,30.80
2023-01-29T15:01:36.701Z,29.20
2023-01-29T15:04:27.287Z,28.70
2023-01-29T15:07:09.533Z,32.00
2023-01-29T15:09:45.844Z,29.20
2023-01-29T15:12:18.375Z,27.80
2023-01-29T15:15:01.720Z,26.60
2023-01-29T15:17:58.242Z,33.80
2023-01-29T15:20:26.874Z,32.50
2023-01-29T15:22:57.553Z,35.00
2023-01-29T15:25:34.981Z,36.60
2023-01-29T15:28:08.703Z,32.10
2023-01-29T15:30:37.930Z,29.50
2023-01-29T15:33:07.868Z,24.40
2023-01-29T15:35:38.468Z,24.90
2023-01-29T15:38:08.005Z,30.60
2023-01-29T15:40:39.114Z,26.80
2023-01-29T15:43:31.418Z,27.20
2023-01-29T15:46:11.134Z,29.30
2023-01-29T15:48:41.813Z,23.50
2023-01-29T15:51:15.761Z,26.40
2023-01-29T15:53:52.019Z,29.10
2023-01-29T15:56:28.821Z,32.50
2023-01-29T15:58:58.450Z,26.00
2023-01-29T16:01:27.833Z,31.00
2023-01-29T16:03:59.352Z,30.70
2023-01-29T16:06:35.026Z,27.10
2023-01-29T16:09:05.638Z,23.70
2023-01-29T16:11:35.074Z,31.70
2023-01-29T16:14:04.342Z,29.20
2023-01-29T16:24:41.177Z,27.90
2023-01-29T16:26:38.237Z,29.90
2023-01-29T16:27:15.946Z,27.20
2023-01-29T16:30:39.796Z,30.40
2023-01-29T16:33:46.651Z,28.40
2023-01-29T16:36:25.053Z,25.00
2023-01-29T16:39:06.493Z,29.20
2023-01-29T16:41:36.232Z,21.80
2023-01-29T16:44:17.207Z,29.20
2023-01-29T16:46:46.999Z,20.00
2023-01-29T16:49:42.745Z,25.30
2023-01-29T16:52:36.897Z,23.70
2023-01-29T16:55:11.771Z,23.10
2023-01-29T16:57:40.432Z,22.90
2023-01-29T17:00:19.023Z,21.10
2023-01-29T17:02:47.499Z,22.70
2023-01-29T17:05:31.336Z,24.00
2023-01-29T17:08:25.038Z,23.80
2023-01-29T17:10:53.639Z,21.20
2023-01-29T17:13:31.452Z,24.10
2023-01-29T17:16:03.147Z,22.30
2023-01-29T17:18:31.630Z,24.20
2023-01-29T17:21:00.666Z,22.20
2023-01-29T17:23:29.301Z,24.60
2023-01-29T17:25:57.945Z,22.80
2023-01-29T17:28:26.913Z,26.70
2023-01-29T17:31:05.938Z,18.50
2023-01-29T17:33:42.105Z,18.70
2023-01-29T17:36:15.503Z,19.60
2023-01-29T17:38:44.348Z,18.70
2023-01-29T17:41:18.165Z,16.70
2023-01-29T17:43:47.157Z,18.40
2023-01-29T17:46:16.833Z,16.70
2023-01-29T17:48:46.217Z,16.00
2023-01-29T17:51:16.601Z,14.70
2023-01-29T17:53:48.010Z,16.50
2023-01-29T17:56:17.852Z,19.70
2023-01-29T17:58:47.373Z,18.70
2023-01-29T18:01:16.400Z,13.80
2023-01-29T18:03:47.986Z,14.10
2023-01-29T18:06:22.593Z,15.10
2023-01-29T18:08:51.641Z,15.90
2023-01-29T18:11:20.268Z,14.80
2023-01-29T18:13:49.022Z,18.10
2023-01-29T18:16:22.267Z,18.60
2023-01-29T18:18:52.034Z,16.80
2023-01-29T18:21:20.766Z,12.70
2023-01-29T18:23:49.283Z,13.50
2023-01-29T18:26:18.277Z,17.80
2023-01-29T18:28:46.836Z,16.90
2023-01-29T18:31:15.667Z,17.70
2023-01-29T18:33:44.315Z,14.70
2023-01-29T18:36:12.808Z,13.60
2023-01-29T18:38:42.199Z,15.10
2023-01-29T18:41:11.361Z,14.40
2023-01-29T18:43:40.602Z,14.80
2023-01-29T18:46:09.374Z,14.40
2023-01-29T18:48:45.695Z,16.40
2023-01-29T18:51:14.464Z,13.50
2023-01-29T18:53:47.249Z,14.30
2023-01-29T18:56:16.322Z,13.40
2023-01-29T18:58:52.253Z,11.90
2023-01-29T19:01:24.742Z,12.20
2023-01-29T19:03:57.092Z,11.10
2023-01-29T19:06:26.569Z,14.30
2023-01-29T19:09:16.577Z,11.20
2023-01-29T19:11:46.842Z,12.10
2023-01-29T19:14:22.278Z,11.20
2023-01-29T19:16:51.323Z,14.00
2023-01-29T19:19:20.547Z,13.90
2023-01-29T19:21:52.712Z,13.60
2023-01-29T19:24:21.596Z,11.90
2023-01-29T19:26:50.179Z,15.80
2023-01-29T19:29:18.823Z,13.90
2023-01-29T19:31:49.214Z,15.10
2023-01-29T19:34:17.879Z,13.40
2023-01-29T19:36:46.461Z,12.10
2023-01-29T19:39:16.240Z,13.20
2023-01-29T19:41:45.506Z,16.60
2023-01-29T19:44:14.190Z,15.70
2023-01-29T19:46:42.957Z,12.10
2023-01-29T19:49:11.752Z,11.80
2023-01-29T19:51:41.741Z,12.60
2023-01-29T19:54:10.298Z,12.90
2023-01-29T19:56:39.363Z,12.20
2023-01-29T19:59:11.376Z,14.00
2023-01-29T20:01:40.377Z,10.50
2023-01-29T20:08:48.721Z,12.40
2023-01-29T20:11:45.505Z,13.90
2023-01-29T20:14:43.412Z,11.70
2023-01-29T20:17:12.376Z,11.20
2023-01-29T20:19:40.813Z,12.30
2023-01-29T20:22:09.263Z,11.90
2023-01-29T20:24:42.498Z,18.00
2023-01-29T20:27:11.951Z,14.20
2023-01-29T20:29:41.974Z,13.30
2023-01-29T20:32:11.793Z,11.40
2023-01-29T20:34:41.184Z,15.40
2023-01-29T20:37:09.463Z,10.60
2023-01-29T20:39:37.932Z,13.80
2023-01-29T20:42:06.275Z,13.80
2023-01-29T20:44:35.391Z,12.30
2023-01-29T20:47:04.396Z,18.40
2023-01-29T20:49:34.443Z,15.60
2023-01-29T20:52:03.032Z,13.50
2023-01-29T20:54:33.488Z,11.60
2023-01-29T20:57:04.348Z,12.40
2023-01-29T20:59:34.020Z,12.50
2023-01-29T21:02:03.558Z,17.30
2023-01-29T21:04:34.634Z,14.60
2023-01-29T21:07:04.186Z,10.40
2023-01-29T21:09:33.552Z,13.70
2023-01-29T21:12:01.959Z,12.20
2023-01-29T21:14:34.233Z,12.50
2023-01-29T21:17:03.568Z,14.60
2023-01-29T21:19:32.091Z,11.60
2023-01-29T21:22:00.553Z,13.20
2023-01-29T21:24:29.278Z,11.60
2023-01-29T21:26:58.287Z,14.20
2023-01-29T21:29:27.141Z,11.20
2023-01-29T21:31:55.649Z,9.20
2023-01-29T21:34:24.366Z,10.50
2023-01-29T21:36:53.006Z,13.70
2023-01-29T21:39:24.474Z,13.60
2023-01-29T21:42:12.037Z,14.40
2023-01-29T21:44:40.899Z,15.10
2023-01-29T21:47:12.920Z,16.20
2023-01-29T21:49:42.250Z,15.20
2023-01-29T21:52:12.731Z,12.20
2023-01-29T21:54:41.535Z,14.30
2023-01-29T21:57:12.616Z,12.20
2023-01-29T21:59:42.463Z,10.40
2023-01-29T22:02:17.188Z,12.60
2023-01-29T22:04:45.962Z,14.60
2023-01-29T22:07:14.773Z,10.40
2023-01-29T22:09:43.384Z,12.90
2023-01-29T22:12:16.055Z,13.20
2023-01-29T22:14:47.814Z,11.40
2023-01-29T22:17:20.314Z,12.00
2023-01-29T22:19:49.168Z,10.20
2023-01-29T22:22:18.572Z,14.60
2023-01-29T22:24:47.040Z,12.50
2023-01-29T22:27:15.992Z,12.60
2023-01-29T22:29:44.467Z,12.00
2023-01-29T22:32:13.527Z,12.70
2023-01-29T22:34:42.152Z,12.70
2023-01-29T22:37:10.801Z,13.90
2023-01-29T22:39:39.698Z,12.70
2023-01-29T22:42:08.343Z,10.70
2023-01-29T22:44:36.824Z,12.50
2023-01-29T22:47:05.296Z,13.50
2023-01-29T22:49:33.833Z,15.20
2023-01-29T22:52:11.612Z,11.50
2023-01-29T22:54:41.960Z,11.20
2023-01-29T22:57:12.352Z,14.00
2023-01-29T22:59:41.358Z,13.40
2023-01-29T23:02:10.007Z,14.30
2023-01-29T23:04:39.359Z,12.60
2023-01-29T23:07:07.876Z,14.20
2023-01-29T23:09:36.346Z,12.80
2023-01-29T23:12:05.415Z,11.50
2023-01-29T23:14:35.883Z,13.10
2023-01-29T23:17:04.278Z,12.30
2023-01-29T23:19:32.624Z,12.00
2023-01-29T23:22:01.006Z,12.00
2023-01-29T23:24:29.496Z,11.50
2023-01-29T23:27:16.100Z,12.60
2023-01-29T23:29:45.573Z,14.10
2023-01-29T23:32:16.217Z,17.70
2023-01-29T23:34:44.650Z,16.70
2023-01-29T23:37:13.361Z,19.60
2023-01-29T23:39:42.296Z,15.70
2023-01-29T23:42:11.485Z,18.90
2023-01-29T23:44:40.683Z,14.70
2023-01-29T23:47:09.268Z,13.50
2023-01-29T23:49:38.087Z,11.80
2023-01-29T23:52:06.591Z,14.50
2023-01-29T23:54:35.571Z,11.60
2023-01-29T23:57:04.093Z,11.80
2023-01-29T23:59:32.860Z,15.00
